首页
METAR-TAF:

METAR-TAF

机场 :

法兰克福-哈恩机场

Hahn, 德国

纬度: 49-57N, 经度: 007-16E, 海拔: 491米

当前天气观测

该预报发布于37分钟前的17:20 UTC
风速3节,风向西南,在西转西南之间变化
温度 0°C
湿度 93%
气压 1017 hPa
能见度10公里或以上
1500米以下无云,无积雨云

METAR: EDFH 191720Z 22003KT 190V250 CAVOK M00/M01 Q1017

时间: 18:57 (17:57 UTC)

预报

该预报发布于57分钟前的17:00 UTC
预报有效从19日的 18点(UTC)到 20日的 18点(UTC)
风速4节,风向西
能见度10公里或以上
少量云层高于2000英尺
成为
从 19日的 22点(UTC)到 20日的 02点(UTC)
风速6节,风向
能見度: 2000
多云层高于500英尺
碎片雾
几率 40% :
短暂存在
从 20日的 02点(UTC)到 20日的 10点(UTC)
能見度: 0300
层高于100英尺
冻雾
成为
从 20日的 11点(UTC)到 20日的 13点(UTC)
能見度: 9000
散云层高于3500英尺

TAF: EDFH 191700Z 1918/2018 28004KT 9999 FEW020 BECMG 1922/2002 10006KT 2000 BCFG BKN005 PROB40 TEMPO 2002/2010 0300 FZFG VV001 BECMG 2011/2013 9000 SCT035

超过4000个机场的气象观测和天气预报(METAR&TAF报告)。

可查询的气象台以黄色和红色小点在地图上表示。

将鼠标移到小点上方,可查看气象台名称。

然后点击查看天气观测和预报。

如需切换地图:点击带黑十字的绿色按钮放大地图;点击带横线的绿色按钮缩小地图;或者点击绿色箭头查看邻近地区的地图。


METAR-TAF: